createdAt,value
2023-05-14T00:03:22.878Z,79.07
2023-05-14T00:07:30.736Z,79.06
2023-05-14T00:11:33.919Z,79.27
2023-05-14T00:15:38.431Z,79.31
2023-05-14T00:19:42.885Z,79.12
2023-05-14T00:23:45.892Z,79.24
2023-05-14T00:27:48.909Z,79.43
2023-05-14T00:31:53.399Z,79.34
2023-05-14T00:35:56.588Z,79.33
2023-05-14T00:39:59.678Z,78.96
2023-05-14T00:44:02.829Z,78.90
2023-05-14T00:48:16.899Z,78.62
2023-05-14T00:52:20.375Z,78.61
2023-05-14T00:56:24.903Z,78.71
2023-05-14T01:00:27.934Z,78.35
2023-05-14T01:04:32.393Z,78.90
2023-05-14T01:08:45.191Z,79.11
2023-05-14T01:12:53.558Z,79.05
2023-05-14T01:16:59.827Z,78.68
2023-05-14T01:21:04.928Z,78.52
2023-05-14T01:25:10.714Z,78.60
2023-05-14T01:29:20.706Z,78.75
2023-05-14T01:33:28.714Z,78.77
2023-05-14T01:37:33.887Z,78.76
2023-05-14T01:41:39.410Z,78.61
2023-05-14T01:45:43.542Z,78.83
2023-05-14T01:49:46.580Z,78.50
2023-05-14T01:53:49.756Z,78.44
2023-05-14T01:57:55.439Z,78.50
2023-05-14T02:01:58.720Z,78.34
2023-05-14T02:06:01.893Z,78.61
2023-05-14T02:10:05.147Z,78.52
2023-05-14T02:14:09.544Z,78.11
2023-05-14T02:18:12.902Z,78.19
2023-05-14T02:22:15.894Z,78.37
2023-05-14T02:26:19.053Z,78.33
2023-05-14T02:30:24.293Z,78.64
2023-05-14T02:34:27.488Z,78.65
2023-05-14T02:38:31.595Z,78.53
2023-05-14T02:42:34.632Z,78.60
2023-05-14T02:46:39.071Z,78.71
2023-05-14T02:50:42.308Z,78.45
2023-05-14T02:54:45.500Z,78.62
2023-05-14T02:58:48.816Z,78.48
2023-05-14T03:02:53.571Z,78.50
2023-05-14T03:06:57.309Z,78.23
2023-05-14T03:11:00.313Z,78.42
2023-05-14T03:15:03.337Z,78.56
2023-05-14T03:19:08.567Z,78.73
2023-05-14T03:23:11.679Z,78.71
2023-05-14T03:27:14.732Z,78.36
2023-05-14T03:31:17.833Z,78.42
2023-05-14T03:35:22.326Z,78.13
2023-05-14T03:39:25.348Z,78.17
2023-05-14T03:43:28.406Z,78.20
2023-05-14T03:47:31.540Z,77.97
2023-05-14T03:51:38.556Z,77.74
2023-05-14T03:55:42.509Z,77.33
2023-05-14T03:59:47.774Z,77.44
2023-05-14T04:03:51.112Z,77.51
2023-05-14T04:07:55.733Z,77.19
2023-05-14T04:11:58.838Z,76.81
2023-05-14T04:16:01.886Z,76.81
2023-05-14T04:20:06.697Z,77.15
2023-05-14T04:24:11.475Z,77.32
2023-05-14T04:28:14.979Z,77.28
2023-05-14T04:32:18.719Z,77.24
2023-05-14T04:36:21.697Z,77.25
2023-05-14T04:40:26.330Z,77.24
2023-05-14T04:44:29.591Z,77.77
2023-05-14T04:48:32.756Z,77.38
2023-05-14T04:52:35.941Z,77.36
2023-05-14T04:56:40.500Z,77.39
2023-05-14T05:00:43.739Z,77.30
2023-05-14T05:04:47.192Z,77.36
2023-05-14T05:08:50.268Z,77.31
2023-05-14T05:12:54.743Z,77.41
2023-05-14T05:16:57.758Z,77.16
2023-05-14T05:21:00.802Z,77.36
2023-05-14T05:25:06.179Z,77.82
2023-05-14T05:29:10.573Z,77.63
2023-05-14T05:33:13.869Z,77.98
2023-05-14T05:37:16.890Z,77.97
2023-05-14T05:41:19.924Z,77.96
2023-05-14T05:45:24.656Z,78.08
2023-05-14T05:49:27.690Z,78.49
2023-05-14T05:53:30.697Z,78.94
2023-05-14T05:57:33.926Z,78.86
2023-05-14T06:01:38.631Z,79.26
2023-05-14T06:05:41.860Z,79.09
2023-05-14T06:09:45.028Z,79.39
2023-05-14T06:13:48.033Z,79.64
2023-05-14T06:17:52.525Z,79.62
2023-05-14T06:21:56.018Z,79.25
2023-05-14T06:25:59.015Z,79.14
2023-05-14T06:30:02.036Z,78.99
2023-05-14T06:34:06.387Z,79.02
2023-05-14T06:38:09.405Z,79.21
2023-05-14T06:42:12.406Z,79.41
2023-05-14T06:46:15.479Z,79.16
2023-05-14T06:50:19.840Z,79.36
2023-05-14T06:54:22.821Z,79.43
2023-05-14T06:58:26.040Z,79.52
2023-05-14T07:02:29.320Z,79.95
2023-05-14T07:06:33.771Z,80.19
2023-05-14T07:10:36.881Z,80.40
2023-05-14T07:14:40.276Z,80.54
2023-05-14T07:18:43.866Z,80.81
2023-05-14T07:22:48.299Z,81.02
2023-05-14T07:26:51.363Z,80.72
2023-05-14T07:30:54.380Z,80.94
2023-05-14T07:34:57.387Z,81.28
2023-05-14T07:39:01.909Z,81.14
2023-05-14T07:43:04.969Z,81.29
2023-05-14T07:47:08.813Z,81.70
2023-05-14T07:51:11.958Z,81.54
2023-05-14T07:55:17.018Z,82.12
2023-05-14T07:59:20.298Z,81.89
2023-05-14T08:03:23.923Z,82.08
2023-05-14T08:07:28.477Z,82.91
2023-05-14T08:11:32.931Z,82.57
2023-05-14T08:15:36.093Z,82.74
2023-05-14T08:19:39.145Z,82.36
2023-05-14T08:23:42.813Z,82.54
2023-05-14T08:27:47.194Z,82.13
2023-05-14T08:31:51.183Z,82.61
2023-05-14T08:35:54.435Z,82.77
2023-05-14T08:39:57.471Z,82.41
2023-05-14T08:44:09.386Z,82.62
2023-05-14T08:48:17.558Z,82.94
2023-05-14T08:52:23.601Z,82.93
2023-05-14T08:56:28.024Z,83.17
2023-05-14T09:00:33.091Z,83.44
2023-05-14T09:04:38.102Z,83.80
2023-05-14T09:08:41.278Z,83.61
2023-05-14T09:12:44.300Z,83.63
2023-05-14T09:16:50.955Z,83.91
2023-05-14T09:20:54.298Z,83.59
2023-05-14T09:25:04.713Z,83.78
2023-05-14T09:29:07.697Z,84.11
2023-05-14T09:33:12.185Z,84.07
2023-05-14T09:37:15.199Z,84.09
2023-05-14T09:41:18.286Z,84.59
2023-05-14T09:45:21.364Z,84.28
2023-05-14T09:49:26.002Z,84.43
2023-05-14T09:53:30.975Z,84.38
2023-05-14T09:57:34.694Z,84.63
2023-05-14T10:01:39.282Z,84.51
2023-05-14T10:05:44.088Z,84.71
2023-05-14T10:09:47.957Z,84.66
2023-05-14T10:14:04.043Z,84.73
2023-05-14T10:18:12.052Z,84.79
2023-05-14T10:22:21.818Z,85.35
2023-05-14T10:26:25.439Z,85.11
2023-05-14T10:30:28.550Z,85.34
2023-05-14T10:34:38.499Z,85.41
2023-05-14T10:38:42.934Z,85.41
2023-05-14T10:42:47.874Z,85.72
2023-05-14T10:46:51.230Z,85.75
2023-05-14T10:50:55.429Z,85.57
2023-05-14T10:55:03.473Z,86.23
2023-05-14T10:59:07.932Z,85.97
2023-05-14T11:03:13.184Z,86.07
2023-05-14T11:07:16.551Z,85.99
2023-05-14T11:11:21.847Z,86.21
2023-05-14T11:15:26.226Z,86.14
2023-05-14T11:19:29.218Z,86.19
2023-05-14T11:23:32.596Z,86.52
2023-05-14T11:27:38.960Z,86.37
2023-05-14T11:31:42.187Z,86.71
2023-05-14T11:35:46.713Z,86.87
2023-05-14T11:39:50.982Z,86.99
2023-05-14T11:43:55.474Z,86.58
2023-05-14T11:47:58.512Z,86.66
2023-05-14T11:52:02.804Z,86.25
2023-05-14T11:56:08.216Z,86.44
2023-05-14T12:00:21.425Z,86.00
2023-05-14T12:04:25.753Z,85.94
2023-05-14T12:08:30.294Z,86.30
2023-05-14T12:12:37.782Z,86.54
2023-05-14T12:16:43.149Z,86.58
2023-05-14T12:20:49.209Z,86.13
2023-05-14T12:24:56.035Z,86.79
2023-05-14T12:29:01.755Z,87.37
2023-05-14T12:33:06.232Z,86.98
2023-05-14T12:37:09.303Z,86.83
2023-05-14T12:41:12.394Z,86.62
2023-05-14T12:45:15.490Z,86.43
2023-05-14T12:49:20.107Z,86.97
2023-05-14T12:53:23.149Z,86.94
2023-05-14T12:57:27.014Z,87.06
2023-05-14T13:01:30.101Z,87.13
2023-05-14T13:05:34.823Z,86.90
2023-05-14T13:09:38.246Z,86.53
2023-05-14T13:13:41.298Z,86.48
2023-05-14T13:17:44.336Z,86.63
2023-05-14T13:21:48.742Z,86.68
2023-05-14T13:25:51.818Z,86.78
2023-05-14T13:29:54.837Z,86.36
2023-05-14T13:33:58.099Z,86.75
2023-05-14T13:38:02.483Z,86.72
2023-05-14T13:42:06.204Z,87.23
2023-05-14T13:46:09.225Z,87.43
2023-05-14T13:50:12.551Z,87.33
2023-05-14T13:54:16.950Z,87.54
2023-05-14T13:58:19.981Z,87.42
2023-05-14T14:02:23.012Z,87.65
2023-05-14T14:06:27.480Z,87.33
2023-05-14T14:10:32.288Z,87.44
2023-05-14T14:14:35.334Z,86.84
2023-05-14T14:18:38.366Z,87.08
2023-05-14T14:22:41.991Z,87.32
2023-05-14T14:26:46.473Z,87.38
2023-05-14T14:30:51.517Z,87.56
2023-05-14T14:34:54.532Z,87.45
2023-05-14T14:38:57.996Z,87.93
2023-05-14T14:43:03.125Z,87.79
2023-05-14T14:47:06.801Z,87.78
2023-05-14T14:51:10.262Z,88.09
2023-05-14T14:55:13.262Z,87.81
2023-05-14T14:59:17.657Z,87.63
2023-05-14T15:03:21.299Z,87.95
2023-05-14T15:07:24.588Z,88.18
2023-05-14T15:11:28.918Z,88.36
2023-05-14T15:15:33.831Z,87.89
2023-05-14T15:19:36.849Z,88.05
2023-05-14T15:23:39.872Z,87.96
2023-05-14T15:27:42.882Z,88.00
2023-05-14T15:31:47.594Z,88.26
2023-05-14T15:35:51.301Z,88.16
2023-05-14T15:39:54.338Z,88.33
2023-05-14T15:43:58.672Z,88.42
2023-05-14T15:48:03.100Z,88.57
2023-05-14T15:52:06.563Z,88.47
2023-05-14T15:56:09.673Z,88.62
2023-05-14T16:00:14.446Z,88.68
2023-05-14T16:04:18.797Z,88.75
2023-05-14T16:08:21.917Z,88.85
2023-05-14T16:12:24.910Z,89.02
2023-05-14T16:16:27.995Z,88.78
2023-05-14T16:20:32.401Z,88.69
2023-05-14T16:24:35.445Z,88.62
2023-05-14T16:28:41.235Z,88.61
2023-05-14T16:32:46.667Z,88.66
2023-05-14T16:36:51.707Z,88.85
2023-05-14T16:40:54.692Z,89.08
2023-05-14T16:44:57.687Z,89.13
2023-05-14T16:49:02.268Z,89.32
2023-05-14T16:53:06.715Z,89.16
2023-05-14T16:57:09.807Z,88.82
2023-05-14T17:01:12.901Z,89.22
2023-05-14T17:05:16.151Z,89.15
2023-05-14T17:09:20.943Z,89.25
2023-05-14T17:13:24.024Z,89.31
2023-05-14T17:17:27.108Z,89.53
2023-05-14T17:21:30.109Z,89.57
2023-05-14T17:25:34.620Z,89.45
2023-05-14T17:29:37.638Z,89.70
2023-05-14T17:33:40.864Z,89.74
2023-05-14T17:37:44.105Z,89.92
2023-05-14T17:41:48.483Z,90.21
2023-05-14T17:45:54.517Z,90.00
2023-05-14T17:49:57.964Z,89.88
2023-05-14T17:54:01.089Z,89.81
2023-05-14T17:58:05.478Z,89.75
2023-05-14T18:02:08.561Z,89.90
2023-05-14T18:06:11.721Z,90.22
2023-05-14T18:10:14.916Z,89.98
2023-05-14T18:14:19.329Z,90.17
2023-05-14T18:18:23.930Z,89.78
2023-05-14T18:22:26.910Z,89.96
2023-05-14T18:26:31.262Z,89.98
2023-05-14T18:30:37.423Z,90.37
2023-05-14T18:34:40.469Z,90.17
2023-05-14T18:38:43.601Z,89.98
2023-05-14T18:42:46.782Z,90.16
2023-05-14T18:46:51.526Z,90.18
2023-05-14T18:50:54.514Z,90.44
2023-05-14T18:54:57.825Z,90.49
2023-05-14T18:59:00.953Z,90.49
2023-05-14T19:03:05.612Z,90.40
2023-05-14T19:07:09.238Z,90.42
2023-05-14T19:11:12.441Z,90.50
2023-05-14T19:15:15.622Z,90.26
2023-05-14T19:19:20.055Z,89.97
2023-05-14T19:23:23.204Z,90.09
2023-05-14T19:27:26.732Z,89.88
2023-05-14T19:31:29.789Z,89.79
2023-05-14T19:35:34.222Z,89.91
2023-05-14T19:39:37.732Z,89.86
2023-05-14T19:43:40.926Z,90.09
2023-05-14T19:47:44.109Z,90.00
2023-05-14T19:51:48.537Z,89.91
2023-05-14T19:55:51.576Z,89.92
2023-05-14T19:59:54.580Z,89.93
2023-05-14T20:03:57.759Z,89.81
2023-05-14T20:08:03.946Z,90.25
2023-05-14T20:12:07.850Z,90.41
2023-05-14T20:16:10.916Z,90.33
2023-05-14T20:20:14.036Z,90.45
2023-05-14T20:24:18.483Z,90.46
2023-05-14T20:28:21.751Z,90.30
2023-05-14T20:32:25.622Z,90.55
2023-05-14T20:36:29.810Z,90.91
2023-05-14T20:40:34.776Z,90.90
2023-05-14T20:44:38.021Z,90.82
2023-05-14T20:48:41.390Z,90.51
2023-05-14T20:52:44.608Z,90.37
2023-05-14T20:56:49.060Z,90.63
2023-05-14T21:00:52.194Z,90.72
2023-05-14T21:04:55.608Z,90.71
2023-05-14T21:08:58.911Z,90.52
2023-05-14T21:13:03.766Z,90.04
2023-05-14T21:17:07.071Z,89.83
2023-05-14T21:21:10.034Z,89.90
2023-05-14T21:25:13.074Z,89.83
2023-05-14T21:29:17.469Z,89.76
2023-05-14T21:33:20.455Z,90.01
2023-05-14T21:37:23.557Z,90.22
2023-05-14T21:41:26.665Z,89.98
2023-05-14T21:45:31.040Z,90.21
2023-05-14T21:49:34.061Z,90.07
2023-05-14T21:53:37.078Z,90.17
2023-05-14T21:57:40.079Z,90.49
2023-05-14T22:05:50.545Z,90.69
2023-05-14T22:09:53.537Z,90.78
2023-05-14T22:13:56.508Z,90.59
2023-05-14T22:18:01.008Z,90.59
2023-05-14T22:22:04.132Z,90.90
2023-05-14T22:26:07.365Z,90.43
2023-05-14T22:30:11.175Z,90.44
2023-05-14T22:34:15.560Z,90.51
2023-05-14T22:38:19.962Z,90.42
2023-05-14T22:42:22.914Z,90.28
2023-05-14T22:46:25.986Z,90.37
2023-05-14T22:50:30.511Z,90.06
2023-05-14T22:54:33.502Z,89.90
2023-05-14T22:58:36.548Z,89.88
2023-05-14T23:02:39.587Z,90.36
2023-05-14T23:06:44.492Z,89.95
2023-05-14T23:10:47.527Z,90.15
2023-05-14T23:14:50.510Z,90.03
2023-05-14T23:18:53.707Z,89.89
2023-05-14T23:22:58.196Z,90.03
2023-05-14T23:27:01.556Z,89.77
2023-05-14T23:31:04.615Z,90.28
2023-05-14T23:35:08.052Z,90.12
2023-05-14T23:39:12.724Z,90.52
2023-05-14T23:43:17.264Z,90.25
2023-05-14T23:47:20.523Z,90.17
2023-05-14T23:51:23.773Z,90.13
2023-05-14T23:55:28.210Z,90.10
2023-05-14T23:59:31.296Z,90.02
